Pittsburgh, PA

12:37 PM EDT on March 27, 2015 (GMT -0400)
Lower Gates Manor | | Change Station
CLOSE
Current Station
Personal Weather Station
Location: Munhall, PA
Elevation: 1050 ft
Nearby Weather Stations

Elev 1050 ft 40.39 °N, 79.92 °W | Updated 10 minutes ago

Overcast
Overcast
35.8 °F
Feels Like 33 °F
N
3.7
Wind Variable Wind from West

Today
High -- | Low -- °F
--% Chance of Precip.
Yesterday
High -- | Low -- °F
Precip. -- in
7:11 AM 7:38 PM
First Quarter, 54% visible
Pressure 29.90 in
Visibility 10.0 miles
Clouds Scattered Clouds 3100 ft
Overcast 4300 ft
Windchill 33 °F
Dew Point 28 °F
Humidity 73%
Rainfall 0.00 in
Snow Depth Not available.
UV 2 out of 12
Pollen 4.50 out of 12
Air Quality Not available.
Flu Activity Not available.
METAR KAGC 271553Z 29007KT 10SM SCT031 OVC043 02/M07 A2986 RMK AO2 SLP125 T00171067

More Conditions Fewer Conditions

Pressure 29.90 in
Visibility 10.0 miles
Clouds Scattered Clouds 3100 ft
Overcast 4300 ft
Windchill 33 °F
Dew Point 28 °F
Humidity 73%
Rainfall 0.00 in
Snow Depth Not available.
UV 2 out of 12
Pollen 4.50 out of 12
Air Quality Not available.
Flu Activity Not available.
METAR KAGC 271553Z 29007KT 10SM SCT031 OVC043 02/M07 A2986 RMK AO2 SLP125 T00171067

More Conditions Fewer Conditions

10-Day Weather Forecast

Almanac

Astronomy

Mar. 27, 2015 Rise Set
Actual Time
Civil Twilight
Nautical Twilight
Astronomical Twilight
Moon
Length of Visible Light
Length of Day
Tomorrow will be .
, % of the Moon is Illuminated

Today's Extremes

State Highs State Lows

Community

WunderPhotos

Upload Photos

1,808,771 photos uploaded!

WunderBlogs® & News

Nearby

Air Quality

  Air Quality AQ Index Pollutant
Not available.

Snow Depth

Station Depth Elevation

Earthquake Activity

City Distance Mag. Time & Date
Minimum magnitude displayed is 2.5.

Coastal Water Temperatures

Place Temperature

Stations

Nearby Weather Stations

Station Location Temp. Windchill Dew Point Humidity Wind Precip. Elev Updated Type